Time;durP1;ratioP1;P1;durP2;ratioP2;P2;SDS_P1;SDS_P2;PMS_P1;PMS_P2;Temp;Humidity;BMP_temperature;BMP_pressure;BME280_temperature;BME280_humidity;BME280_pressure;Samples;Min_cycle;Max_cycle;Signal;HPM_P1;HPM_P2
2023/04/08 00:00:44;;;;;;;16.07;13.77;;;8.40;99.90;;;;;;4943580;29;20712;-68
2023/04/08 00:03:09;;;;;;;17.20;14.37;;;8.40;99.90;;;;;;4954433;28;20187;-68
2023/04/08 00:05:35;;;;;;;18.40;15.20;;;8.40;99.90;;;;;;4954497;28;20441;-68
2023/04/08 00:08:00;;;;;;;18.97;15.03;;;8.30;99.90;;;;;;4954584;28;20231;-68
2023/04/08 00:10:26;;;;;;;20.90;15.53;;;8.30;99.90;;;;;;4969050;28;20209;-68
2023/04/08 00:12:51;;;;;;;17.87;15.13;;;8.40;99.90;;;;;;4954351;28;20190;-68
2023/04/08 00:15:17;;;;;;;17.67;14.07;;;8.40;99.90;;;;;;4954378;28;20193;-68
2023/04/08 00:17:42;;;;;;;16.70;15.00;;;8.40;99.90;;;;;;4953814;28;20200;-68
2023/04/08 00:20:08;;;;;;;18.23;15.40;;;8.40;99.90;;;;;;4953449;29;20593;-68
2023/04/08 00:22:35;;;;;;;17.97;14.70;;;8.40;99.90;;;;;;4947957;28;20185;-68
2023/04/08 00:25:01;;;;;;;17.70;15.67;;;8.50;99.90;;;;;;4945811;29;21185;-68
2023/04/08 00:27:27;;;;;;;18.90;15.50;;;8.50;99.90;;;;;;4954121;28;20563;-68
2023/04/08 00:29:52;;;;;;;21.43;14.40;;;8.50;99.90;;;;;;4953408;29;20515;-68
2023/04/08 00:32:18;;;;;;;23.33;17.23;;;8.40;99.90;;;;;;4954094;28;20219;-68
2023/04/08 00:34:43;;;;;;;19.30;14.27;;;8.30;99.90;;;;;;4954029;29;20623;-68
2023/04/08 00:37:09;;;;;;;20.83;15.17;;;8.30;99.90;;;;;;4954033;28;20227;-68
2023/04/08 00:39:36;;;;;;;18.00;15.67;;;8.30;99.90;;;;;;4952703;28;20184;-68
2023/04/08 00:42:02;;;;;;;18.60;15.50;;;8.30;99.90;;;;;;4952627;28;20452;-68
2023/04/08 00:44:27;;;;;;;17.30;14.13;;;8.30;99.90;;;;;;4953509;28;20446;-68
2023/04/08 00:46:53;;;;;;;16.27;14.57;;;8.30;99.90;;;;;;4953803;28;20204;-68
2023/04/08 00:49:18;;;;;;;17.70;14.27;;;8.30;99.90;;;;;;4942137;28;20185;-68
2023/04/08 00:51:44;;;;;;;14.20;12.70;;;8.30;99.90;;;;;;4949698;29;20188;-68
2023/04/08 00:54:10;;;;;;;17.57;13.73;;;8.30;99.90;;;;;;4952262;28;20188;-68
2023/04/08 00:56:36;;;;;;;16.20;14.17;;;8.20;99.90;;;;;;4953175;28;20347;-68
2023/04/08 00:59:03;;;;;;;13.90;12.50;;;8.30;99.90;;;;;;4953288;29;20747;-68
2023/04/08 01:02:07;;;;;;;17.00;13.00;;;8.30;99.90;;;;;;4952468;28;20441;-68
2023/04/08 01:04:41;;;;;;;15.53;13.93;;;8.30;99.90;;;;;;4939505;28;20808;-68
2023/04/08 01:07:27;;;;;;;14.47;13.00;;;8.20;99.90;;;;;;4941213;29;20573;-68
2023/04/08 01:10:01;;;;;;;14.80;12.60;;;8.30;99.90;;;;;;4946958;29;20436;-68
2023/04/08 01:12:30;;;;;;;12.60;11.30;;;8.30;99.90;;;;;;4953625;28;20515;-68
2023/04/08 01:15:05;;;;;;;14.63;13.10;;;8.20;99.90;;;;;;4952826;28;20511;-68
2023/04/08 01:17:32;;;;;;;13.70;12.30;;;8.20;99.90;;;;;;4952869;28;20459;-68
2023/04/08 01:20:00;;;;;;;13.43;12.10;;;8.30;99.90;;;;;;4952667;28;20440;-68
2023/04/08 01:22:36;;;;;;;14.73;13.17;;;8.30;99.90;;;;;;4939817;28;20860;-68
2023/04/08 01:25:11;;;;;;;13.13;11.77;;;8.30;99.90;;;;;;4950846;29;20487;-68
2023/04/08 01:27:37;;;;;;;12.37;11.17;;;8.20;99.90;;;;;;4946871;28;20477;-68
2023/04/08 01:30:05;;;;;;;15.00;11.60;;;8.20;99.90;;;;;;4943896;29;20503;-68
2023/04/08 01:32:32;;;;;;;14.10;12.20;;;8.20;99.90;;;;;;4942224;29;20193;-68
2023/04/08 01:34:59;;;;;;;12.67;11.33;;;8.20;99.90;;;;;;4950667;29;20447;-68
2023/04/08 01:37:28;;;;;;;12.80;11.47;;;8.20;99.90;;;;;;4949948;28;20480;-68
2023/04/08 01:39:55;;;;;;;14.40;12.10;;;8.20;99.90;;;;;;4953016;28;20504;-68
2023/04/08 01:42:23;;;;;;;12.40;11.03;;;8.20;99.90;;;;;;4952664;28;20447;-68
2023/04/08 01:44:51;;;;;;;14.40;12.80;;;8.20;99.90;;;;;;4952917;29;20447;-68
2023/04/08 01:47:17;;;;;;;11.80;10.47;;;8.20;99.90;;;;;;4950054;28;20982;-68
2023/04/08 01:49:43;;;;;;;12.60;11.13;;;8.20;99.90;;;;;;4944937;29;20443;-68
2023/04/08 01:52:09;;;;;;;12.70;11.40;;;8.20;99.90;;;;;;4954725;28;20432;-68
2023/04/08 01:54:35;;;;;;;11.67;10.53;;;8.20;99.90;;;;;;4956820;28;20436;-68
2023/04/08 01:57:05;;;;;;;14.03;11.93;;;8.20;99.90;;;;;;4953053;28;21048;-68
2023/04/08 01:59:34;;;;;;;14.20;11.97;;;8.20;99.90;;;;;;4956222;29;20196;-68
2023/04/08 02:02:03;;;;;;;15.00;12.83;;;8.20;99.90;;;;;;4956026;28;20969;-68
2023/04/08 02:04:29;;;;;;;13.03;11.60;;;8.10;99.90;;;;;;4956853;28;20865;-68
2023/04/08 02:06:56;;;;;;;15.70;13.57;;;8.10;99.90;;;;;;4956258;28;20531;-68
2023/04/08 02:09:21;;;;;;;15.27;12.33;;;8.10;99.90;;;;;;4955921;28;20200;-68
2023/04/08 02:11:47;;;;;;;13.23;11.97;;;8.10;99.90;;;;;;4956628;29;20436;-68
2023/04/08 02:14:13;;;;;;;15.10;13.13;;;8.00;99.90;;;;;;4956842;28;20702;-68
2023/04/08 02:16:49;;;;;;;17.93;15.00;;;7.90;99.90;;;;;;4956326;29;20611;-68
2023/04/08 02:19:23;;;;;;;20.57;13.97;;;7.90;99.90;;;;;;4955505;28;20554;-68
2023/04/08 02:21:54;;;;;;;18.10;14.67;;;7.90;99.90;;;;;;4956366;28;20474;-68
2023/04/08 02:24:21;;;;;;;19.03;14.23;;;7.90;99.90;;;;;;4944617;29;20440;-68
2023/04/08 02:26:49;;;;;;;16.83;14.30;;;7.90;99.90;;;;;;4949861;28;20480;-68
2023/04/08 02:29:16;;;;;;;18.50;14.37;;;7.90;99.90;;;;;;4955975;28;20444;-68
2023/04/08 02:31:42;;;;;;;15.03;13.40;;;8.00;99.90;;;;;;4955973;28;20494;-68
2023/04/08 02:34:09;;;;;;;15.57;12.57;;;8.10;99.90;;;;;;4956414;28;20795;-68
2023/04/08 02:36:36;;;;;;;14.63;12.50;;;8.10;99.90;;;;;;4955411;28;20479;-68
2023/04/08 02:39:02;;;;;;;15.37;13.77;;;8.10;99.90;;;;;;4955531;28;20444;-68
2023/04/08 02:41:29;;;;;;;16.10;13.23;;;8.00;99.90;;;;;;4956407;28;20866;-68
2023/04/08 02:43:55;;;;;;;15.33;12.97;;;8.00;99.90;;;;;;4954788;28;20440;-68
2023/04/08 02:46:20;;;;;;;14.83;12.97;;;8.00;99.90;;;;;;4950664;28;20490;-68
2023/04/08 02:48:46;;;;;;;18.00;12.50;;;8.00;99.90;;;;;;4955146;28;20187;-68
2023/04/08 02:51:12;;;;;;;16.90;13.60;;;8.00;99.90;;;;;;4952023;29;20185;-68
2023/04/08 02:53:37;;;;;;;16.70;12.47;;;8.00;99.90;;;;;;4951845;28;20249;-68
2023/04/08 02:56:03;;;;;;;16.80;13.00;;;7.90;99.90;;;;;;4945019;28;20181;-68
2023/04/08 02:58:28;;;;;;;14.70;12.23;;;8.00;99.90;;;;;;4951626;29;20193;-68
2023/04/08 03:00:54;;;;;;;22.23;13.60;;;8.00;99.90;;;;;;4953908;28;20189;-68
2023/04/08 03:03:26;;;;;;;17.60;14.00;;;7.90;99.90;;;;;;4951643;28;20611;-68
2023/04/08 03:05:52;;;;;;;16.00;12.97;;;8.00;99.90;;;;;;4943450;29;20177;-68
2023/04/08 03:08:18;;;;;;;17.10;13.40;;;8.00;99.90;;;;;;4952851;28;20739;-68
2023/04/08 03:10:43;;;;;;;15.20;12.50;;;7.90;99.90;;;;;;4955850;28;20515;-68
2023/04/08 03:13:09;;;;;;;15.83;11.50;;;8.00;99.90;;;;;;4955590;28;20639;-68
2023/04/08 03:15:35;;;;;;;12.80;10.47;;;8.00;99.90;;;;;;4955023;28;20235;-68
2023/04/08 03:18:00;;;;;;;13.10;9.97;;;8.00;99.90;;;;;;4954862;28;20236;-68
2023/04/08 03:20:26;;;;;;;15.27;11.93;;;7.90;99.90;;;;;;4955239;29;20173;-68
2023/04/08 03:22:51;;;;;;;14.47;11.40;;;8.00;99.90;;;;;;4955503;29;20192;-68
2023/04/08 03:25:17;;;;;;;14.10;12.60;;;8.00;99.90;;;;;;4952289;28;20188;-68
2023/04/08 03:27:43;;;;;;;14.07;12.30;;;8.00;99.90;;;;;;4954861;28;20219;-68
2023/04/08 03:30:08;;;;;;;16.20;11.80;;;8.00;99.90;;;;;;4954837;29;20207;-68
2023/04/08 03:32:34;;;;;;;11.50;10.30;;;8.00;99.90;;;;;;4954995;29;20181;-68
2023/04/08 03:35:00;;;;;;;15.30;12.37;;;7.90;99.90;;;;;;4943231;28;20178;-68
2023/04/08 03:37:25;;;;;;;17.10;13.10;;;7.90;99.90;;;;;;4971782;23;20228;-68
2023/04/08 03:39:53;;;;;;;13.23;11.03;;;7.90;99.90;;;;;;4969867;28;20215;-68
2023/04/08 03:42:19;;;;;;;17.63;12.73;;;8.00;99.90;;;;;;4969407;28;20226;-68
2023/04/08 03:44:44;;;;;;;14.10;11.77;;;7.90;99.90;;;;;;4972710;28;20451;-68
2023/04/08 03:47:10;;;;;;;18.67;13.33;;;7.80;99.90;;;;;;4966154;28;20239;-68
2023/04/08 03:49:35;;;;;;;13.53;11.13;;;7.80;99.90;;;;;;4971561;28;20901;-68
2023/04/08 03:52:01;;;;;;;15.40;11.60;;;7.80;99.90;;;;;;4973583;28;20171;-68
2023/04/08 03:54:26;;;;;;;14.03;11.73;;;7.90;99.90;;;;;;4973263;28;20645;-68
2023/04/08 03:56:52;;;;;;;12.33;10.40;;;7.90;99.90;;;;;;4971463;28;20198;-68
2023/04/08 03:59:17;;;;;;;15.00;11.60;;;8.00;99.90;;;;;;4968344;28;20198;-68
2023/04/08 04:01:43;;;;;;;15.40;13.00;;;8.00;99.90;;;;;;4972941;28;20718;-68
2023/04/08 04:04:08;;;;;;;15.80;11.77;;;7.90;99.90;;;;;;4973480;28;20172;-68
2023/04/08 04:06:34;;;;;;;16.00;12.07;;;7.90;99.90;;;;;;4972316;28;20212;-68
2023/04/08 04:08:59;;;;;;;16.37;11.93;;;7.90;99.90;;;;;;4966861;28;20201;-68
2023/04/08 04:11:26;;;;;;;18.73;14.27;;;7.90;99.90;;;;;;4972233;28;20925;-68
2023/04/08 04:13:51;;;;;;;18.93;14.87;;;8.00;99.90;;;;;;4967883;28;20212;-68
2023/04/08 04:16:17;;;;;;;17.63;12.67;;;8.00;99.90;;;;;;4966964;28;20435;-68
2023/04/08 04:18:42;;;;;;;18.17;12.50;;;8.00;99.90;;;;;;4963811;28;20204;-68
2023/04/08 04:21:08;;;;;;;16.90;13.87;;;8.00;99.90;;;;;;4964830;28;20208;-68
2023/04/08 04:23:33;;;;;;;15.00;12.60;;;7.90;99.90;;;;;;4967596;28;20188;-68
2023/04/08 04:25:59;;;;;;;17.47;13.80;;;7.90;99.90;;;;;;4966051;28;20571;-68
2023/04/08 04:28:24;;;;;;;17.37;11.93;;;7.90;99.90;;;;;;4970547;28;20688;-68
2023/04/08 04:30:50;;;;;;;14.57;11.10;;;8.00;99.90;;;;;;4970053;28;20637;-68
2023/04/08 04:33:15;;;;;;;16.57;12.53;;;8.00;99.90;;;;;;4968893;28;20192;-68
2023/04/08 04:35:41;;;;;;;13.23;11.40;;;7.90;99.90;;;;;;4968458;28;20626;-68
2023/04/08 04:38:11;;;;;;;15.10;11.87;;;7.80;99.90;;;;;;4971331;28;20245;-68
2023/04/08 04:40:37;;;;;;;17.60;13.77;;;7.80;99.90;;;;;;4965818;28;20192;-68
2023/04/08 04:43:02;;;;;;;19.10;13.83;;;7.70;99.90;;;;;;4965020;28;20450;-67
2023/04/08 04:45:28;;;;;;;16.90;13.40;;;7.70;99.90;;;;;;4962904;28;20439;-68
2023/04/08 04:47:53;;;;;;;18.30;13.90;;;7.70;99.90;;;;;;4970645;28;20216;-68
2023/04/08 04:50:19;;;;;;;16.73;12.63;;;7.70;99.90;;;;;;4970582;28;20518;-68
2023/04/08 04:52:45;;;;;;;19.97;13.73;;;7.60;99.90;;;;;;4968404;28;20176;-68
2023/04/08 04:55:10;;;;;;;17.47;14.07;;;7.60;99.90;;;;;;4965631;28;20486;-68
2023/04/08 04:57:36;;;;;;;17.07;14.67;;;7.60;99.90;;;;;;4970209;28;20511;-68
2023/04/08 05:00:02;;;;;;;20.00;13.90;;;7.60;99.90;;;;;;4971799;28;20184;-68
2023/04/08 05:02:27;;;;;;;19.80;15.00;;;7.60;99.90;;;;;;4970438;28;20306;-68
2023/04/08 05:04:54;;;;;;;20.27;14.50;;;7.60;99.90;;;;;;4963773;28;20527;-68
2023/04/08 05:07:20;;;;;;;18.83;14.63;;;7.60;99.90;;;;;;4964266;28;20212;-68
2023/04/08 05:09:46;;;;;;;15.73;13.57;;;7.60;99.90;;;;;;4968390;28;20475;-68
2023/04/08 05:12:11;;;;;;;15.13;13.53;;;7.60;99.90;;;;;;4971352;28;20775;-68
2023/04/08 05:14:37;;;;;;;18.17;14.10;;;7.60;99.90;;;;;;4964156;28;20222;-68
2023/04/08 05:17:04;;;;;;;19.70;14.10;;;7.60;99.90;;;;;;4962768;28;20196;-68
2023/04/08 05:19:30;;;;;;;18.53;15.27;;;7.60;99.90;;;;;;4965142;28;20172;-68
2023/04/08 05:21:55;;;;;;;19.87;14.70;;;7.60;99.90;;;;;;4966040;28;20432;-68
2023/04/08 05:24:21;;;;;;;18.23;15.97;;;7.60;99.90;;;;;;4965397;28;20535;-68
2023/04/08 05:26:51;;;;;;;22.50;15.87;;;7.60;99.90;;;;;;4966443;28;20203;-68
2023/04/08 05:29:17;;;;;;;17.50;14.47;;;7.60;99.90;;;;;;4973998;28;20176;-68
2023/04/08 05:31:43;;;;;;;17.60;15.43;;;7.60;99.90;;;;;;4973760;28;20963;-68
2023/04/08 05:34:09;;;;;;;20.93;18.40;;;7.60;99.90;;;;;;4975443;28;20530;-68
2023/04/08 05:36:34;;;;;;;17.70;15.70;;;7.60;99.90;;;;;;4968889;28;20191;-68
2023/04/08 05:39:00;;;;;;;19.33;17.13;;;7.60;99.90;;;;;;4969777;28;20504;-68
2023/04/08 05:41:25;;;;;;;18.73;16.53;;;7.70;99.90;;;;;;4967930;28;20711;-67
2023/04/08 05:43:51;;;;;;;22.30;17.40;;;7.70;99.90;;;;;;4968013;28;20183;-68
2023/04/08 05:46:16;;;;;;;22.57;16.23;;;7.70;99.90;;;;;;4971969;28;20594;-68
2023/04/08 05:48:42;;;;;;;23.80;16.70;;;7.70;99.90;;;;;;4973953;28;20196;-68
2023/04/08 05:51:16;;;;;;;21.50;17.17;;;7.80;99.90;;;;;;4974305;28;20697;-68
2023/04/08 05:53:43;;;;;;;22.60;18.20;;;7.70;99.90;;;;;;4974320;28;20187;-68
2023/04/08 05:56:09;;;;;;;22.03;17.70;;;7.80;99.90;;;;;;4971218;28;20948;-68
2023/04/08 05:58:34;;;;;;;22.63;18.00;;;7.90;99.90;;;;;;4973274;28;20465;-68
2023/04/08 06:01:00;;;;;;;18.40;15.37;;;8.00;99.90;;;;;;4974457;28;20176;-68
2023/04/08 06:03:25;;;;;;;19.30;16.80;;;8.10;99.90;;;;;;4975682;28;20567;-67
2023/04/08 06:05:51;;;;;;;21.43;16.40;;;8.00;99.90;;;;;;4974664;28;20544;-68
2023/04/08 06:08:16;;;;;;;17.53;14.23;;;8.10;99.90;;;;;;4974842;28;20204;-68
2023/04/08 06:10:49;;;;;;;17.40;14.37;;;8.10;99.90;;;;;;4973486;28;20223;-68
2023/04/08 06:13:14;;;;;;;18.27;14.90;;;8.10;99.90;;;;;;4973465;28;20195;-68
2023/04/08 06:15:40;;;;;;;17.10;15.30;;;8.20;99.90;;;;;;4974565;28;20438;-68
2023/04/08 06:18:05;;;;;;;15.33;13.53;;;8.20;99.90;;;;;;4974689;28;20265;-68
2023/04/08 06:20:31;;;;;;;16.93;13.93;;;8.20;99.90;;;;;;4971734;28;20250;-68
2023/04/08 06:22:56;;;;;;;16.00;13.00;;;8.30;99.90;;;;;;4974478;28;20177;-68
2023/04/08 06:25:22;;;;;;;15.60;13.93;;;8.30;99.90;;;;;;4974641;28;20188;-70
2023/04/08 06:27:48;;;;;;;15.57;13.27;;;8.30;99.90;;;;;;4967595;28;20207;-70
2023/04/08 06:30:13;;;;;;;14.20;12.70;;;8.20;99.90;;;;;;4974461;28;20650;-68
2023/04/08 06:32:39;;;;;;;13.00;11.70;;;8.20;99.90;;;;;;4972568;28;20181;-70
2023/04/08 06:35:06;;;;;;;16.40;14.30;;;8.30;99.90;;;;;;4972377;28;20195;-70
2023/04/08 06:37:33;;;;;;;16.00;13.63;;;8.30;99.90;;;;;;4970824;28;20592;-67
2023/04/08 06:39:58;;;;;;;14.50;12.70;;;8.40;99.90;;;;;;4972400;28;21015;-69
2023/04/08 06:42:26;;;;;;;15.30;12.67;;;8.40;99.90;;;;;;4972433;28;20995;-70
2023/04/08 06:44:51;;;;;;;15.13;13.73;;;8.40;99.90;;;;;;4974233;28;21130;-70
2023/04/08 06:47:17;;;;;;;15.10;12.00;;;8.40;99.90;;;;;;4971693;28;20467;-70
2023/04/08 06:49:42;;;;;;;14.37;12.33;;;8.50;99.90;;;;;;4970089;28;20638;-69
2023/04/08 06:52:08;;;;;;;13.20;11.80;;;8.70;99.90;;;;;;4973431;28;20204;-70
2023/04/08 06:54:33;;;;;;;12.60;11.30;;;8.70;99.90;;;;;;4973245;28;20563;-69
2023/04/08 06:56:59;;;;;;;13.27;11.80;;;8.80;99.90;;;;;;4968846;28;20212;-70
2023/04/08 06:59:24;;;;;;;12.27;11.07;;;8.90;99.90;;;;;;4970757;28;20188;-69
2023/04/08 07:01:50;;;;;;;12.50;11.20;;;8.90;99.90;;;;;;4968515;28;20185;-69
2023/04/08 07:04:16;;;;;;;13.53;10.10;;;9.10;99.90;;;;;;4971208;28;20575;-70
2023/04/08 07:06:41;;;;;;;13.30;11.90;;;9.00;99.90;;;;;;4972072;28;20208;-69
2023/04/08 07:09:07;;;;;;;12.07;10.13;;;9.00;99.90;;;;;;4962993;28;20185;-69
2023/04/08 07:11:33;;;;;;;11.73;10.50;;;9.00;99.90;;;;;;4967683;28;20197;-69
2023/04/08 07:13:59;;;;;;;13.37;11.97;;;8.90;99.90;;;;;;4973110;28;20799;-69
2023/04/08 07:16:24;;;;;;;11.73;10.00;;;8.90;99.90;;;;;;4973334;28;20196;-69
2023/04/08 07:18:50;;;;;;;14.30;11.90;;;9.00;99.90;;;;;;4973609;28;20204;-70
2023/04/08 07:21:16;;;;;;;13.87;11.90;;;8.90;99.90;;;;;;4974726;28;20188;-70
2023/04/08 07:23:42;;;;;;;17.30;14.30;;;8.90;99.90;;;;;;4973563;28;20180;-70
2023/04/08 07:26:08;;;;;;;17.27;13.50;;;8.80;99.90;;;;;;4973471;28;20443;-69
2023/04/08 07:28:33;;;;;;;15.60;13.13;;;8.80;99.90;;;;;;4973246;28;20192;-70
2023/04/08 07:31:16;;;;;;;16.50;14.80;;;8.80;99.90;;;;;;4973680;28;20180;-69
2023/04/08 07:33:42;;;;;;;17.77;15.23;;;8.70;99.90;;;;;;4970492;28;20179;-70
2023/04/08 07:36:09;;;;;;;15.93;14.20;;;8.70;99.90;;;;;;4971993;28;20806;-70
2023/04/08 07:38:35;;;;;;;17.57;15.13;;;8.70;99.90;;;;;;4972110;28;20467;-70
2023/04/08 07:41:00;;;;;;;18.43;15.60;;;8.80;99.90;;;;;;4972976;28;20602;-70
2023/04/08 07:43:26;;;;;;;17.30;14.67;;;8.80;99.90;;;;;;4972163;28;20463;-70
2023/04/08 07:45:52;;;;;;;16.60;14.03;;;8.90;99.90;;;;;;4971801;28;20624;-69
2023/04/08 07:48:17;;;;;;;14.70;12.93;;;8.90;99.90;;;;;;4971808;28;20200;-70
2023/04/08 07:50:44;;;;;;;16.50;14.03;;;9.00;99.90;;;;;;4971883;28;20235;-70
2023/04/08 07:53:10;;;;;;;16.57;13.63;;;9.10;99.90;;;;;;4969255;28;20645;-70
2023/04/08 07:55:36;;;;;;;16.13;13.53;;;9.30;99.90;;;;;;4970692;28;20523;-70
2023/04/08 07:58:02;;;;;;;15.10;13.50;;;9.50;99.90;;;;;;4964799;28;20236;-69
2023/04/08 08:00:30;;;;;;;15.90;14.13;;;9.70;99.90;;;;;;4968086;28;20971;-70
2023/04/08 08:02:55;;;;;;;13.93;12.43;;;9.90;99.90;;;;;;4967192;28;20184;-70
2023/04/08 08:05:21;;;;;;;14.97;12.57;;;9.90;99.90;;;;;;4968958;28;20444;-69
2023/04/08 08:07:46;;;;;;;14.77;13.27;;;10.10;99.90;;;;;;4969769;28;20271;-70
2023/04/08 08:10:12;;;;;;;15.07;11.83;;;10.20;99.90;;;;;;4968064;28;20646;-70
2023/04/08 08:12:37;;;;;;;14.80;13.30;;;10.30;99.90;;;;;;4969433;28;20247;-70
2023/04/08 08:15:03;;;;;;;17.20;15.40;;;10.50;99.90;;;;;;4971761;28;20179;-69
2023/04/08 08:17:32;;;;;;;14.80;13.30;;;10.60;99.90;;;;;;4971660;28;20689;-70
2023/04/08 08:19:58;;;;;;;15.30;13.90;;;10.60;99.90;;;;;;4967108;28;20531;-69
2023/04/08 08:22:23;;;;;;;14.83;13.43;;;10.90;99.90;;;;;;4968551;28;20569;-70
2023/04/08 08:24:55;;;;;;;15.30;13.77;;;11.00;99.90;;;;;;4967641;28;20947;-70
2023/04/08 08:27:20;;;;;;;13.13;11.40;;;11.40;99.90;;;;;;4972826;28;20204;-69
2023/04/08 08:29:46;;;;;;;14.63;11.90;;;11.60;99.90;;;;;;4967271;28;20447;-70
2023/04/08 08:32:12;;;;;;;14.70;13.30;;;11.80;99.90;;;;;;4965570;28;20557;-69
2023/04/08 08:34:38;;;;;;;18.13;15.07;;;11.70;99.90;;;;;;4967484;28;20516;-70
2023/04/08 08:37:03;;;;;;;14.87;13.40;;;11.60;99.90;;;;;;4972001;28;20467;-69
2023/04/08 08:39:29;;;;;;;14.63;13.17;;;11.40;99.90;;;;;;4968011;28;20192;-69
2023/04/08 08:41:55;;;;;;;17.03;14.40;;;11.30;99.90;;;;;;4966755;28;20264;-69
2023/04/08 08:44:21;;;;;;;16.77;15.07;;;11.10;99.90;;;;;;4958522;28;20443;-69
2023/04/08 08:46:47;;;;;;;15.87;14.27;;;11.00;99.90;;;;;;4969433;28;20514;-69
2023/04/08 08:49:13;;;;;;;15.87;14.27;;;11.00;99.90;;;;;;4970955;28;20191;-69
2023/04/08 08:51:45;;;;;;;14.67;13.27;;;11.30;99.90;;;;;;4969255;28;20522;-69
2023/04/08 08:54:10;;;;;;;15.83;14.00;;;11.50;99.90;;;;;;4966405;28;20187;-70
2023/04/08 08:56:36;;;;;;;20.70;14.60;;;11.50;99.90;;;;;;4969866;28;20440;-69
2023/04/08 08:59:02;;;;;;;14.40;12.97;;;11.70;99.90;;;;;;4968546;28;20549;-70
2023/04/08 09:01:38;;;;;;;15.10;13.60;;;11.90;99.90;;;;;;4967685;28;20623;-69
2023/04/08 09:04:15;;;;;;;44.17;32.03;;;11.90;99.90;;;;;;4965867;28;20184;-70
2023/04/08 09:06:42;;;;;;;20.60;18.57;;;12.50;99.90;;;;;;4965138;28;20458;-70
2023/04/08 09:09:09;;;;;;;15.33;13.90;;;13.10;99.90;;;;;;4971294;28;20458;-69
2023/04/08 09:11:37;;;;;;;15.17;13.63;;;13.80;99.90;;;;;;4964567;28;20841;-70
2023/04/08 09:14:03;;;;;;;14.23;12.90;;;14.50;99.90;;;;;;4971757;28;20435;-70
2023/04/08 09:16:31;;;;;;;12.93;11.83;;;14.80;99.90;;;;;;4972080;28;20446;-69
2023/04/08 09:19:08;;;;;;;15.40;13.83;;;15.30;99.90;;;;;;4970110;28;20258;-69
2023/04/08 09:21:34;;;;;;;16.37;14.77;;;15.30;99.90;;;;;;4970547;28;20439;-69
2023/04/08 09:23:59;;;;;;;13.73;12.53;;;15.60;99.90;;;;;;4970317;28;20971;-69
2023/04/08 09:26:26;;;;;;;15.40;14.00;;;15.50;99.90;;;;;;4970407;28;20467;-70
2023/04/08 09:29:08;;;;;;;14.60;13.20;;;15.50;99.90;;;;;;4969416;28;20196;-69
2023/04/08 09:31:37;;;;;;;16.13;14.73;;;15.60;99.90;;;;;;4969181;28;20446;-69
2023/04/08 09:34:18;;;;;;;16.47;14.97;;;15.50;99.90;;;;;;4968968;28;20432;-69
2023/04/08 09:36:44;;;;;;;15.23;13.83;;;15.40;99.90;;;;;;4970186;28;20443;-69
2023/04/08 09:39:10;;;;;;;16.23;14.63;;;15.30;99.90;;;;;;4971839;28;20451;-70
2023/04/08 09:41:37;;;;;;;15.90;14.40;;;15.60;99.90;;;;;;4968188;28;21007;-69
2023/04/08 09:44:05;;;;;;;20.43;18.30;;;15.40;99.90;;;;;;4970058;28;20192;-70
2023/04/08 09:46:48;;;;;;;16.60;15.20;;;15.30;99.90;;;;;;4970393;28;20459;-69
2023/04/08 09:49:37;;;;;;;14.43;13.03;;;15.30;99.90;;;;;;4969804;28;20526;-69
2023/04/08 09:52:32;;;;;;;16.50;15.10;;;15.20;99.90;;;;;;4965661;28;20443;-69
2023/04/08 09:55:07;;;;;;;18.20;16.50;;;15.40;99.90;;;;;;4966360;28;20467;-70
2023/04/08 09:57:57;;;;;;;16.27;14.57;;;15.80;99.40;;;;;;4965568;28;20469;-69
2023/04/08 10:00:32;;;;;;;16.97;15.47;;;16.40;97.80;;;;;;4966195;28;20455;-69
2023/04/08 10:03:15;;;;;;;17.00;15.43;;;17.00;95.40;;;;;;4971491;28;20435;-70
2023/04/08 10:05:42;;;;;;;15.53;14.33;;;17.40;94.80;;;;;;4964360;28;20444;-70
2023/04/08 10:08:08;;;;;;;15.37;14.13;;;17.70;93.70;;;;;;4964587;28;20471;-70
2023/04/08 10:10:38;;;;;;;16.90;15.30;;;17.90;93.80;;;;;;4965812;28;20450;-69
2023/04/08 10:13:04;;;;;;;15.83;14.53;;;17.40;92.20;;;;;;4967767;28;20437;-69
2023/04/08 10:15:31;;;;;;;15.40;14.10;;;16.60;93.80;;;;;;4972302;28;20510;-69
2023/04/08 10:18:05;;;;;;;14.47;13.00;;;16.10;95.60;;;;;;4974390;28;20200;-70
2023/04/08 10:20:36;;;;;;;15.33;13.87;;;16.20;96.40;;;;;;4971962;28;20439;-69
2023/04/08 10:23:04;;;;;;;14.57;13.37;;;16.10;95.50;;;;;;4967602;28;20478;-69
2023/04/08 10:25:37;;;;;;;16.70;15.00;;;16.00;95.30;;;;;;4971140;28;20446;-70
2023/04/08 10:28:17;;;;;;;14.80;13.50;;;16.10;95.30;;;;;;4971104;28;20470;-69
2023/04/08 10:30:46;;;;;;;14.80;13.50;;;16.50;95.10;;;;;;4967691;28;20945;-69
2023/04/08 10:33:18;;;;;;;20.97;15.47;;;16.40;93.10;;;;;;4968782;28;20817;-69
2023/04/08 10:35:47;;;;;;;16.40;15.00;;;16.10;92.10;;;;;;4974819;28;20514;-70
2023/04/08 10:38:15;;;;;;;14.10;12.80;;;15.70;91.80;;;;;;4967926;28;20991;-69
2023/04/08 10:40:41;;;;;;;15.37;14.03;;;15.40;91.80;;;;;;4973764;28;20562;-69
2023/04/08 10:43:11;;;;;;;14.90;13.60;;;14.90;93.00;;;;;;4972830;28;20480;-70
2023/04/08 10:45:37;;;;;;;17.17;15.67;;;14.30;96.80;;;;;;4970276;28;20446;-69
2023/04/08 10:48:27;;;;;;;17.83;16.23;;;13.90;99.30;;;;;;4972271;28;20463;-69
2023/04/08 10:50:58;;;;;;;15.53;14.00;;;13.70;98.90;;;;;;4967778;28;20444;-69
2023/04/08 10:53:29;;;;;;;17.40;15.77;;;13.50;99.90;;;;;;4974255;28;20436;-69
2023/04/08 10:56:13;;;;;;;16.80;15.20;;;13.40;99.90;;;;;;4969963;28;20949;-69
2023/04/08 10:58:55;;;;;;;14.40;13.10;;;13.60;99.90;;;;;;4972375;28;20985;-69
2023/04/08 11:01:20;;;;;;;19.90;15.50;;;13.60;99.90;;;;;;4973809;28;20439;-69
2023/04/08 11:03:46;;;;;;;15.83;14.50;;;13.50;99.90;;;;;;4969511;28;20486;-69
2023/04/08 11:06:11;;;;;;;16.83;15.33;;;13.30;99.90;;;;;;4968294;28;20174;-69
2023/04/08 11:08:37;;;;;;;16.13;14.73;;;13.10;99.90;;;;;;4973645;28;20193;-69
2023/04/08 11:11:07;;;;;;;16.40;14.90;;;13.00;99.90;;;;;;4975194;28;20255;-69
2023/04/08 11:13:39;;;;;;;14.83;13.43;;;12.90;99.90;;;;;;4973480;28;20192;-69
2023/04/08 11:16:05;;;;;;;15.90;14.50;;;12.80;99.90;;;;;;4974643;28;20435;-69
2023/04/08 11:18:33;;;;;;;14.30;13.00;;;12.60;99.90;;;;;;4972430;28;20485;-69
2023/04/08 11:21:00;;;;;;;17.43;13.70;;;12.70;99.90;;;;;;4972069;28;20448;-69
2023/04/08 11:23:26;;;;;;;16.73;15.03;;;12.60;99.90;;;;;;4973265;28;20534;-68
2023/04/08 11:25:52;;;;;;;15.80;14.40;;;12.70;99.90;;;;;;4973227;28;21139;-69
2023/04/08 11:28:19;;;;;;;15.83;14.23;;;12.70;99.90;;;;;;4971532;28;20223;-70
2023/04/08 11:30:46;;;;;;;16.33;14.87;;;12.80;99.90;;;;;;4971420;28;20444;-69
2023/04/08 11:33:13;;;;;;;16.63;15.10;;;12.90;99.90;;;;;;4971849;28;20448;-69
2023/04/08 11:35:42;;;;;;;14.77;13.27;;;13.00;99.90;;;;;;4970800;28;20501;-69
2023/04/08 11:38:09;;;;;;;15.73;14.27;;;13.00;99.90;;;;;;4967033;28;21026;-69
2023/04/08 11:40:35;;;;;;;15.73;14.43;;;13.00;99.90;;;;;;4963499;28;20483;-69
2023/04/08 11:43:14;;;;;;;15.57;14.00;;;13.10;99.90;;;;;;4973315;28;20478;-69
2023/04/08 11:45:40;;;;;;;16.70;15.13;;;13.10;99.90;;;;;;4970334;28;20195;-69
2023/04/08 11:48:13;;;;;;;15.10;13.60;;;13.00;99.90;;;;;;4971302;28;20550;-68
2023/04/08 11:50:40;;;;;;;14.20;13.00;;;12.90;99.90;;;;;;4970745;28;20443;-69
2023/04/08 11:53:19;;;;;;;17.67;14.07;;;13.00;99.90;;;;;;4970266;28;20447;-69
2023/04/08 11:55:45;;;;;;;15.80;14.43;;;13.00;99.90;;;;;;4965680;28;20431;-69
2023/04/08 11:58:11;;;;;;;16.67;15.07;;;13.10;99.90;;;;;;4971032;28;21034;-69
2023/04/08 12:00:37;;;;;;;16.10;14.70;;;13.10;99.90;;;;;;4968610;28;20192;-69
2023/04/08 12:03:03;;;;;;;15.67;14.17;;;13.10;99.90;;;;;;4972293;28;20649;-69
2023/04/08 12:05:28;;;;;;;17.70;15.87;;;13.10;99.90;;;;;;4972891;28;20439;-69
2023/04/08 12:07:54;;;;;;;16.73;15.00;;;13.00;99.90;;;;;;4969783;28;20755;-69
2023/04/08 12:10:19;;;;;;;15.93;14.43;;;13.00;99.90;;;;;;4969129;28;20590;-69
2023/04/08 12:12:45;;;;;;;17.27;15.57;;;12.90;99.90;;;;;;4966242;28;20273;-70
2023/04/08 12:15:11;;;;;;;15.17;13.57;;;12.90;99.90;;;;;;4971275;28;20552;-69
2023/04/08 12:17:37;;;;;;;15.13;13.50;;;13.10;99.90;;;;;;4967059;28;20208;-69
2023/04/08 12:20:04;;;;;;;15.20;13.70;;;13.20;99.90;;;;;;4959448;28;20185;-69
2023/04/08 12:22:30;;;;;;;17.30;15.70;;;13.40;99.90;;;;;;4964996;28;20458;-69
2023/04/08 12:24:55;;;;;;;14.43;13.03;;;13.20;99.90;;;;;;4970412;28;20451;-69
2023/04/08 12:27:21;;;;;;;15.47;14.03;;;13.20;99.90;;;;;;4970161;28;20691;-69
2023/04/08 12:29:48;;;;;;;16.67;15.13;;;13.20;99.90;;;;;;4970096;28;20642;-69
2023/04/08 12:32:14;;;;;;;17.47;15.87;;;12.80;99.90;;;;;;4970043;28;20172;-69
2023/04/08 12:34:40;;;;;;;15.67;14.27;;;12.70;99.90;;;;;;4967922;28;20566;-69